sensor_id;sensor_type;location;lat;lon;timestamp;pressure;altitude;pressure_sealevel;temperature;humidity
74708;BME280;63360;50.104;8.074;2022-12-29T00:00:15;96394.56;;;8.56;100.00
74708;BME280;63360;50.104;8.074;2022-12-29T00:02:42;96403.88;;;8.57;100.00
74708;BME280;63360;50.104;8.074;2022-12-29T00:05:08;96409.97;;;8.52;100.00
74708;BME280;63360;50.104;8.074;2022-12-29T00:07:35;96395.91;;;8.62;100.00
74708;BME280;63360;50.104;8.074;2022-12-29T00:10:02;96408.31;;;8.47;100.00
74708;BME280;63360;50.104;8.074;2022-12-29T00:12:29;96398.44;;;8.32;100.00
74708;BME280;63360;50.104;8.074;2022-12-29T00:15:15;96419.13;;;8.49;100.00
74708;BME280;63360;50.104;8.074;2022-12-29T00:18:00;96421.59;;;8.46;100.00
74708;BME280;63360;50.104;8.074;2022-12-29T00:20:27;96412.59;;;8.43;100.00
74708;BME280;63360;50.104;8.074;2022-12-29T00:23:22;96411.81;;;8.26;100.00
74708;BME280;63360;50.104;8.074;2022-12-29T00:26:15;96406.81;;;8.38;100.00
74708;BME280;63360;50.104;8.074;2022-12-29T00:29:01;96416.41;;;8.37;100.00
74708;BME280;63360;50.104;8.074;2022-12-29T00:31:50;96419.28;;;8.36;100.00
74708;BME280;63360;50.104;8.074;2022-12-29T00:34:35;96420.22;;;8.31;100.00
74708;BME280;63360;50.104;8.074;2022-12-29T00:37:20;96405.59;;;8.18;100.00
74708;BME280;63360;50.104;8.074;2022-12-29T00:40:06;96411.81;;;8.26;100.00
74708;BME280;63360;50.104;8.074;2022-12-29T00:42:51;96398.59;;;8.19;100.00
74708;BME280;63360;50.104;8.074;2022-12-29T00:45:36;96401.47;;;8.26;100.00
74708;BME280;63360;50.104;8.074;2022-12-29T00:48:03;96399.03;;;8.21;100.00
74708;BME280;63360;50.104;8.074;2022-12-29T00:50:29;96394.47;;;8.18;100.00
74708;BME280;63360;50.104;8.074;2022-12-29T00:52:56;96413.38;;;8.18;100.00
74708;BME280;63360;50.104;8.074;2022-12-29T00:55:22;96391.09;;;8.17;100.00
74708;BME280;63360;50.104;8.074;2022-12-29T00:57:48;96387.91;;;8.12;100.00
74708;BME280;63360;50.104;8.074;2022-12-29T01:00:15;96391.13;;;8.09;100.00
74708;BME280;63360;50.104;8.074;2022-12-29T01:02:42;96383.38;;;8.09;100.00
74708;BME280;63360;50.104;8.074;2022-12-29T01:05:08;96384.41;;;8.16;100.00
74708;BME280;63360;50.104;8.074;2022-12-29T01:07:35;96378.78;;;8.14;100.00
74708;BME280;63360;50.104;8.074;2022-12-29T01:10:01;96378.63;;;8.02;100.00
74708;BME280;63360;50.104;8.074;2022-12-29T01:12:37;96389.28;;;8.09;100.00
74708;BME280;63360;50.104;8.074;2022-12-29T01:15:08;96384.88;;;8.10;100.00
74708;BME280;63360;50.104;8.074;2022-12-29T01:17:35;96381.84;;;8.08;100.00
74708;BME280;63360;50.104;8.074;2022-12-29T01:20:03;96384.44;;;7.99;100.00
74708;BME280;63360;50.104;8.074;2022-12-29T01:22:30;96380.63;;;7.97;100.00
74708;BME280;63360;50.104;8.074;2022-12-29T01:24:56;96382.00;;;7.94;100.00
74708;BME280;63360;50.104;8.074;2022-12-29T01:27:23;96374.22;;;7.85;100.00
74708;BME280;63360;50.104;8.074;2022-12-29T01:29:49;96373.94;;;7.96;100.00
74708;BME280;63360;50.104;8.074;2022-12-29T01:32:15;96384.47;;;7.82;100.00
74708;BME280;63360;50.104;8.074;2022-12-29T01:34:43;96382.75;;;7.77;100.00
74708;BME280;63360;50.104;8.074;2022-12-29T01:37:10;96383.69;;;7.81;100.00
74708;BME280;63360;50.104;8.074;2022-12-29T01:39:36;96372.41;;;7.77;100.00
74708;BME280;63360;50.104;8.074;2022-12-29T01:42:03;96375.31;;;7.84;100.00
74708;BME280;63360;50.104;8.074;2022-12-29T01:44:51;96392.84;;;7.87;100.00
74708;BME280;63360;50.104;8.074;2022-12-29T01:47:24;96379.88;;;7.79;100.00
74708;BME280;63360;50.104;8.074;2022-12-29T01:49:54;96370.91;;;7.68;100.00
74708;BME280;63360;50.104;8.074;2022-12-29T01:52:22;96389.16;;;7.80;100.00
74708;BME280;63360;50.104;8.074;2022-12-29T01:54:52;96385.81;;;7.79;100.00
74708;BME280;63360;50.104;8.074;2022-12-29T01:57:24;96372.28;;;7.74;100.00
74708;BME280;63360;50.104;8.074;2022-12-29T01:59:56;96370.13;;;7.76;100.00
74708;BME280;63360;50.104;8.074;2022-12-29T02:02:25;96375.91;;;7.73;100.00
74708;BME280;63360;50.104;8.074;2022-12-29T02:04:53;96366.94;;;7.79;100.00
74708;BME280;63360;50.104;8.074;2022-12-29T02:07:28;96374.72;;;7.79;100.00
74708;BME280;63360;50.104;8.074;2022-12-29T02:09:55;96374.84;;;7.82;100.00
74708;BME280;63360;50.104;8.074;2022-12-29T02:12:23;96355.50;;;7.80;100.00
74708;BME280;63360;50.104;8.074;2022-12-29T02:14:54;96362.22;;;7.81;100.00
74708;BME280;63360;50.104;8.074;2022-12-29T02:34:06;96337.38;;;7.80;100.00
74708;BME280;63360;50.104;8.074;2022-12-29T02:36:45;96337.38;;;7.80;100.00
74708;BME280;63360;50.104;8.074;2022-12-29T02:39:30;96331.63;;;7.74;100.00
74708;BME280;63360;50.104;8.074;2022-12-29T02:42:13;96331.16;;;7.81;100.00
74708;BME280;63360;50.104;8.074;2022-12-29T02:47:37;96327.94;;;7.84;100.00
74708;BME280;63360;50.104;8.074;2022-12-29T02:52:48;96315.00;;;7.75;100.00
74708;BME280;63360;50.104;8.074;2022-12-29T02:55:15;96314.09;;;7.80;100.00
74708;BME280;63360;50.104;8.074;2022-12-29T02:57:42;96308.16;;;7.79;100.00
74708;BME280;63360;50.104;8.074;2022-12-29T03:00:16;96305.75;;;7.74;100.00
74708;BME280;63360;50.104;8.074;2022-12-29T03:10:45;96312.25;;;7.72;100.00
74708;BME280;63360;50.104;8.074;2022-12-29T03:13:39;96324.00;;;7.78;100.00
74708;BME280;63360;50.104;8.074;2022-12-29T03:16:34;96297.66;;;7.76;100.00
74708;BME280;63360;50.104;8.074;2022-12-29T03:19:10;96295.38;;;7.66;100.00
74708;BME280;63360;50.104;8.074;2022-12-29T03:21:48;96313.63;;;7.78;100.00
74708;BME280;63360;50.104;8.074;2022-12-29T03:24:39;96301.75;;;7.85;100.00
74708;BME280;63360;50.104;8.074;2022-12-29T03:27:10;96299.31;;;7.89;100.00
74708;BME280;63360;50.104;8.074;2022-12-29T03:29:44;96280.13;;;7.81;100.00
74708;BME280;63360;50.104;8.074;2022-12-29T03:32:14;96295.19;;;7.88;100.00
74708;BME280;63360;50.104;8.074;2022-12-29T03:34:43;96301.72;;;7.94;100.00
74708;BME280;63360;50.104;8.074;2022-12-29T03:37:13;96276.63;;;7.77;100.00
74708;BME280;63360;50.104;8.074;2022-12-29T03:39:41;96289.56;;;7.94;100.00
74708;BME280;63360;50.104;8.074;2022-12-29T03:42:13;96283.00;;;7.88;100.00
74708;BME280;63360;50.104;8.074;2022-12-29T03:44:43;96266.09;;;7.82;100.00
74708;BME280;63360;50.104;8.074;2022-12-29T03:47:11;96275.25;;;7.88;100.00
74708;BME280;63360;50.104;8.074;2022-12-29T03:49:38;96262.47;;;7.83;100.00
74708;BME280;63360;50.104;8.074;2022-12-29T03:52:05;96270.06;;;7.88;100.00
74708;BME280;63360;50.104;8.074;2022-12-29T03:54:32;96249.97;;;7.85;100.00
74708;BME280;63360;50.104;8.074;2022-12-29T03:56:59;96253.31;;;7.86;100.00
74708;BME280;63360;50.104;8.074;2022-12-29T03:59:25;96264.88;;;7.88;100.00
74708;BME280;63360;50.104;8.074;2022-12-29T04:01:52;96273.25;;;7.94;100.00
74708;BME280;63360;50.104;8.074;2022-12-29T04:04:18;96254.06;;;7.86;100.00
74708;BME280;63360;50.104;8.074;2022-12-29T04:06:44;96260.16;;;7.90;100.00
74708;BME280;63360;50.104;8.074;2022-12-29T04:09:11;96258.34;;;7.82;100.00
74708;BME280;63360;50.104;8.074;2022-12-29T04:11:37;96257.56;;;7.90;100.00
74708;BME280;63360;50.104;8.074;2022-12-29T04:14:04;96248.31;;;7.81;100.00
74708;BME280;63360;50.104;8.074;2022-12-29T04:16:30;96261.53;;;7.88;100.00
74708;BME280;63360;50.104;8.074;2022-12-29T04:18:56;96265.97;;;7.87;100.00
74708;BME280;63360;50.104;8.074;2022-12-29T04:21:23;96252.25;;;7.87;100.00
74708;BME280;63360;50.104;8.074;2022-12-29T04:23:49;96259.53;;;7.93;100.00
74708;BME280;63360;50.104;8.074;2022-12-29T04:26:16;96243.88;;;7.90;100.00
74708;BME280;63360;50.104;8.074;2022-12-29T04:28:42;96270.19;;;8.01;100.00
74708;BME280;63360;50.104;8.074;2022-12-29T04:31:09;96274.78;;;7.95;100.00
74708;BME280;63360;50.104;8.074;2022-12-29T04:33:35;96280.13;;;7.90;100.00
74708;BME280;63360;50.104;8.074;2022-12-29T04:36:02;96255.28;;;7.89;100.00
74708;BME280;63360;50.104;8.074;2022-12-29T04:38:28;96259.38;;;7.99;100.00
74708;BME280;63360;50.104;8.074;2022-12-29T04:40:54;96244.16;;;7.88;100.00
74708;BME280;63360;50.104;8.074;2022-12-29T04:43:21;96260.00;;;7.96;100.00
74708;BME280;63360;50.104;8.074;2022-12-29T04:45:50;96246.16;;;7.83;100.00
74708;BME280;63360;50.104;8.074;2022-12-29T04:48:16;96247.34;;;7.94;100.00
74708;BME280;63360;50.104;8.074;2022-12-29T04:50:43;96246.47;;;7.90;100.00
74708;BME280;63360;50.104;8.074;2022-12-29T04:53:10;96246.16;;;7.91;100.00
74708;BME280;63360;50.104;8.074;2022-12-29T04:55:36;96248.47;;;7.84;100.00
74708;BME280;63360;50.104;8.074;2022-12-29T04:58:03;96229.25;;;7.85;100.00
74708;BME280;63360;50.104;8.074;2022-12-29T05:00:29;96235.94;;;7.95;100.00
74708;BME280;63360;50.104;8.074;2022-12-29T05:02:56;96245.69;;;7.98;100.00
74708;BME280;63360;50.104;8.074;2022-12-29T05:05:23;96261.94;;;8.07;100.00
74708;BME280;63360;50.104;8.074;2022-12-29T05:07:49;96258.13;;;8.05;100.00
74708;BME280;63360;50.104;8.074;2022-12-29T05:10:16;96272.47;;;8.02;100.00
74708;BME280;63360;50.104;8.074;2022-12-29T05:12:43;96269.72;;;7.99;100.00
74708;BME280;63360;50.104;8.074;2022-12-29T05:15:10;96262.09;;;8.02;100.00
74708;BME280;63360;50.104;8.074;2022-12-29T05:17:37;96252.53;;;7.94;100.00
74708;BME280;63360;50.104;8.074;2022-12-29T05:20:05;96255.25;;;8.06;100.00
74708;BME280;63360;50.104;8.074;2022-12-29T05:22:32;96264.06;;;8.05;100.00
74708;BME280;63360;50.104;8.074;2022-12-29T05:24:59;96249.91;;;8.03;100.00
74708;BME280;63360;50.104;8.074;2022-12-29T05:27:26;96246.41;;;7.99;100.00
74708;BME280;63360;50.104;8.074;2022-12-29T05:29:52;96240.78;;;7.97;100.00
74708;BME280;63360;50.104;8.074;2022-12-29T05:32:18;96245.97;;;7.97;100.00
74708;BME280;63360;50.104;8.074;2022-12-29T05:34:45;96260.09;;;8.08;100.00
74708;BME280;63360;50.104;8.074;2022-12-29T05:37:11;96228.59;;;8.06;100.00
74708;BME280;63360;50.104;8.074;2022-12-29T05:39:38;96244.25;;;8.09;100.00
74708;BME280;63360;50.104;8.074;2022-12-29T05:42:04;96234.53;;;8.06;100.00
74708;BME280;63360;50.104;8.074;2022-12-29T05:44:31;96246.38;;;8.16;100.00
74708;BME280;63360;50.104;8.074;2022-12-29T05:46:57;96237.13;;;8.06;100.00
74708;BME280;63360;50.104;8.074;2022-12-29T05:49:23;96252.50;;;8.11;100.00
74708;BME280;63360;50.104;8.074;2022-12-29T05:51:50;96240.94;;;8.00;100.00
74708;BME280;63360;50.104;8.074;2022-12-29T05:54:16;96251.41;;;8.12;100.00
74708;BME280;63360;50.104;8.074;2022-12-29T05:56:43;96252.00;;;8.09;100.00
74708;BME280;63360;50.104;8.074;2022-12-29T05:59:09;96259.06;;;8.09;100.00
74708;BME280;63360;50.104;8.074;2022-12-29T06:01:35;96251.44;;;8.04;100.00
74708;BME280;63360;50.104;8.074;2022-12-29T06:04:02;96252.94;;;8.13;100.00
74708;BME280;63360;50.104;8.074;2022-12-29T06:06:29;96266.16;;;8.20;100.00
74708;BME280;63360;50.104;8.074;2022-12-29T06:08:55;96255.66;;;8.17;100.00
74708;BME280;63360;50.104;8.074;2022-12-29T06:11:22;96249.84;;;8.20;100.00
74708;BME280;63360;50.104;8.074;2022-12-29T06:13:48;96248.78;;;8.21;100.00
74708;BME280;63360;50.104;8.074;2022-12-29T06:16:14;96257.31;;;8.21;100.00
74708;BME280;63360;50.104;8.074;2022-12-29T06:18:41;96237.53;;;8.17;100.00
74708;BME280;63360;50.104;8.074;2022-12-29T06:21:08;96266.91;;;8.29;100.00
74708;BME280;63360;50.104;8.074;2022-12-29T06:23:34;96264.31;;;8.29;100.00
74708;BME280;63360;50.104;8.074;2022-12-29T06:26:01;96259.00;;;8.17;100.00
74708;BME280;63360;50.104;8.074;2022-12-29T06:28:27;96274.41;;;8.22;100.00
74708;BME280;63360;50.104;8.074;2022-12-29T06:30:54;96266.16;;;8.20;100.00
74708;BME280;63360;50.104;8.074;2022-12-29T06:33:20;96267.41;;;8.14;100.00
74708;BME280;63360;50.104;8.074;2022-12-29T06:35:47;96262.97;;;8.15;100.00
74708;BME280;63360;50.104;8.074;2022-12-29T06:38:13;96274.25;;;8.19;100.00
74708;BME280;63360;50.104;8.074;2022-12-29T06:40:41;96254.75;;;8.13;100.00
74708;BME280;63360;50.104;8.074;2022-12-29T06:43:08;96243.22;;;8.02;100.00
74708;BME280;63360;50.104;8.074;2022-12-29T06:45:34;96249.91;;;8.03;100.00
74708;BME280;63360;50.104;8.074;2022-12-29T06:48:01;96252.81;;;8.01;100.00
74708;BME280;63360;50.104;8.074;2022-12-29T06:50:27;96258.91;;;8.05;100.00
74708;BME280;63360;50.104;8.074;2022-12-29T06:52:53;96267.72;;;8.04;100.00
74708;BME280;63360;50.104;8.074;2022-12-29T06:55:20;96256.31;;;7.97;100.00
74708;BME280;63360;50.104;8.074;2022-12-29T06:57:47;96250.84;;;7.98;100.00
74708;BME280;63360;50.104;8.074;2022-12-29T07:00:14;96250.81;;;8.07;100.00
74708;BME280;63360;50.104;8.074;2022-12-29T07:02:47;96253.13;;;8.00;100.00
74708;BME280;63360;50.104;8.074;2022-12-29T07:05:14;96265.13;;;8.04;100.00
74708;BME280;63360;50.104;8.074;2022-12-29T07:07:41;96279.44;;;8.10;100.00
74708;BME280;63360;50.104;8.074;2022-12-29T07:10:07;96257.19;;;8.09;100.00
74708;BME280;63360;50.104;8.074;2022-12-29T07:12:34;96261.31;;;8.10;100.00
74708;BME280;63360;50.104;8.074;2022-12-29T07:15:00;96265.88;;;8.13;100.00
74708;BME280;63360;50.104;8.074;2022-12-29T07:17:27;96263.94;;;8.02;100.00
74708;BME280;63360;50.104;8.074;2022-12-29T07:19:53;96258.75;;;8.02;100.00
74708;BME280;63360;50.104;8.074;2022-12-29T07:22:20;96266.66;;;8.05;100.00
74708;BME280;63360;50.104;8.074;2022-12-29T07:24:46;96284.19;;;8.08;100.00
74708;BME280;63360;50.104;8.074;2022-12-29T07:27:13;96283.69;;;8.15;100.00
74708;BME280;63360;50.104;8.074;2022-12-29T07:29:40;96264.06;;;8.14;100.00
74708;BME280;63360;50.104;8.074;2022-12-29T07:32:06;96266.03;;;8.17;100.00
74708;BME280;63360;50.104;8.074;2022-12-29T07:34:33;96265.88;;;8.13;100.00
74708;BME280;63360;50.104;8.074;2022-12-29T07:36:59;96282.59;;;8.24;100.00
74708;BME280;63360;50.104;8.074;2022-12-29T07:39:25;96296.19;;;8.21;100.00
74708;BME280;63360;50.104;8.074;2022-12-29T07:41:52;96286.88;;;8.20;100.00
74708;BME280;63360;50.104;8.074;2022-12-29T07:44:18;96297.06;;;8.25;100.00
74708;BME280;63360;50.104;8.074;2022-12-29T07:46:45;96297.38;;;8.24;100.00
74708;BME280;63360;50.104;8.074;2022-12-29T07:49:22;96276.06;;;8.18;100.00
74708;BME280;63360;50.104;8.074;2022-12-29T07:51:49;96283.84;;;8.18;100.00
74708;BME280;63360;50.104;8.074;2022-12-29T07:54:16;96286.25;;;8.23;100.00
74708;BME280;63360;50.104;8.074;2022-12-29T07:56:45;96291.28;;;8.20;100.00
74708;BME280;63360;50.104;8.074;2022-12-29T07:59:11;96294.34;;;8.22;100.00
74708;BME280;63360;50.104;8.074;2022-12-29T08:01:40;96309.44;;;8.28;100.00
74708;BME280;63360;50.104;8.074;2022-12-29T08:04:07;96315.38;;;8.29;100.00
74708;BME280;63360;50.104;8.074;2022-12-29T08:06:34;96311.09;;;8.24;100.00
74708;BME280;63360;50.104;8.074;2022-12-29T08:09:00;96306.38;;;8.26;100.00
74708;BME280;63360;50.104;8.074;2022-12-29T08:11:37;96312.00;;;8.37;100.00
74708;BME280;63360;50.104;8.074;2022-12-29T08:14:04;96319.78;;;8.28;100.00
74708;BME280;63360;50.104;8.074;2022-12-29T08:16:31;96321.91;;;8.35;100.00
74708;BME280;63360;50.104;8.074;2022-12-29T08:18:58;96329.25;;;8.33;100.00
74708;BME280;63360;50.104;8.074;2022-12-29T08:21:26;96327.22;;;8.38;100.00
74708;BME280;63360;50.104;8.074;2022-12-29T08:23:53;96326.16;;;8.39;100.00
74708;BME280;63360;50.104;8.074;2022-12-29T08:26:20;96321.91;;;8.43;100.00
74708;BME280;63360;50.104;8.074;2022-12-29T08:28:46;96334.53;;;8.45;100.00
74708;BME280;63360;50.104;8.074;2022-12-29T08:31:13;96323.75;;;8.34;100.00
74708;BME280;63360;50.104;8.074;2022-12-29T08:33:39;96327.22;;;8.38;100.00
74708;BME280;63360;50.104;8.074;2022-12-29T08:36:06;96342.16;;;8.41;100.00
74708;BME280;63360;50.104;8.074;2022-12-29T08:38:33;96331.03;;;8.41;100.00
74708;BME280;63360;50.104;8.074;2022-12-29T08:40:59;96330.13;;;8.37;100.00
74708;BME280;63360;50.104;8.074;2022-12-29T08:43:28;96331.78;;;8.41;100.00
74708;BME280;63360;50.104;8.074;2022-12-29T08:45:54;96324.94;;;8.45;100.00
74708;BME280;63360;50.104;8.074;2022-12-29T08:48:22;96340.31;;;8.50;100.00
74708;BME280;63360;50.104;8.074;2022-12-29T08:50:49;96337.97;;;8.58;100.00
74708;BME280;63360;50.104;8.074;2022-12-29T08:53:16;96347.28;;;8.59;100.00
74708;BME280;63360;50.104;8.074;2022-12-29T08:55:53;96330.69;;;8.51;100.00
74708;BME280;63360;50.104;8.074;2022-12-29T08:58:27;96328.56;;;8.53;100.00
74708;BME280;63360;50.104;8.074;2022-12-29T09:00:55;96348.94;;;8.63;100.00
74708;BME280;63360;50.104;8.074;2022-12-29T09:03:25;96355.50;;;8.61;100.00
74708;BME280;63360;50.104;8.074;2022-12-29T09:06:13;96343.31;;;8.61;100.00
74708;BME280;63360;50.104;8.074;2022-12-29T09:08:40;96350.16;;;8.66;100.00
74708;BME280;63360;50.104;8.074;2022-12-29T09:11:20;96349.88;;;8.59;100.00
74708;BME280;63360;50.104;8.074;2022-12-29T09:13:48;96354.72;;;8.69;100.00
74708;BME280;63360;50.104;8.074;2022-12-29T09:16:15;96353.03;;;8.73;100.00
74708;BME280;63360;50.104;8.074;2022-12-29T09:18:42;96352.25;;;8.72;100.00
74708;BME280;63360;50.104;8.074;2022-12-29T09:21:10;96361.97;;;8.84;100.00
74708;BME280;63360;50.104;8.074;2022-12-29T09:23:36;96358.16;;;8.81;100.00
74708;BME280;63360;50.104;8.074;2022-12-29T09:26:03;96365.19;;;8.81;100.00
74708;BME280;63360;50.104;8.074;2022-12-29T09:28:30;96362.94;;;8.71;100.00
74708;BME280;63360;50.104;8.074;2022-12-29T09:30:57;96379.22;;;8.80;100.00
74708;BME280;63360;50.104;8.074;2022-12-29T09:33:24;96387.78;;;8.80;100.00
74708;BME280;63360;50.104;8.074;2022-12-29T09:35:54;96372.38;;;8.75;99.99
74708;BME280;63360;50.104;8.074;2022-12-29T09:38:22;96395.50;;;8.89;100.00
74708;BME280;63360;50.104;8.074;2022-12-29T09:40:52;96388.03;;;8.87;100.00
74708;BME280;63360;50.104;8.074;2022-12-29T09:46:25;96389.59;;;8.80;100.00
74708;BME280;63360;50.104;8.074;2022-12-29T09:49:18;96375.28;;;8.74;100.00
74708;BME280;63360;50.104;8.074;2022-12-29T09:51:57;96387.34;;;8.70;100.00
74708;BME280;63360;50.104;8.074;2022-12-29T09:54:43;96384.28;;;8.68;100.00
74708;BME280;63360;50.104;8.074;2022-12-29T09:57:28;96370.28;;;8.60;100.00
74708;BME280;63360;50.104;8.074;2022-12-29T10:00:01;96370.44;;;8.64;100.00
74708;BME280;63360;50.104;8.074;2022-12-29T10:02:39;96360.69;;;8.61;100.00
74708;BME280;63360;50.104;8.074;2022-12-29T10:21:58;96373.94;;;8.97;95.47
74708;BME280;63360;50.104;8.074;2022-12-29T10:24:27;96376.06;;;9.03;92.14
74708;BME280;63360;50.104;8.074;2022-12-29T10:26:57;96382.09;;;9.16;90.61
74708;BME280;63360;50.104;8.074;2022-12-29T10:29:29;96377.47;;;9.22;88.45
74708;BME280;63360;50.104;8.074;2022-12-29T10:32:02;96380.22;;;9.25;87.89
74708;BME280;63360;50.104;8.074;2022-12-29T10:34:36;96410.53;;;9.33;85.29
74708;BME280;63360;50.104;8.074;2022-12-29T10:37:11;96387.94;;;9.34;87.22
74708;BME280;63360;50.104;8.074;2022-12-29T10:39:45;96399.06;;;9.34;87.74
74708;BME280;63360;50.104;8.074;2022-12-29T10:42:23;96381.72;;;9.26;85.21
74708;BME280;63360;50.104;8.074;2022-12-29T10:44:52;96391.88;;;9.40;82.37
74708;BME280;63360;50.104;8.074;2022-12-29T10:47:24;96382.06;;;9.45;83.77
74708;BME280;63360;50.104;8.074;2022-12-29T10:49:51;96403.34;;;9.39;85.16
74708;BME280;63360;50.104;8.074;2022-12-29T10:52:20;96402.00;;;9.53;82.76
74708;BME280;63360;50.104;8.074;2022-12-29T10:54:54;96406.75;;;9.51;83.45
74708;BME280;63360;50.104;8.074;2022-12-29T11:00:00;96382.06;;;9.45;80.88
74708;BME280;63360;50.104;8.074;2022-12-29T11:07:39;96395.22;;;9.40;83.30
74708;BME280;63360;50.104;8.074;2022-12-29T11:10:29;96419.41;;;9.32;82.38
74708;BME280;63360;50.104;8.074;2022-12-29T11:13:20;96417.72;;;9.36;80.36
74708;BME280;63360;50.104;8.074;2022-12-29T11:15:50;96421.50;;;9.39;83.36
74708;BME280;63360;50.104;8.074;2022-12-29T11:21:00;96418.78;;;9.35;81.01
74708;BME280;63360;50.104;8.074;2022-12-29T11:23:33;96414.56;;;9.22;82.96
74708;BME280;63360;50.104;8.074;2022-12-29T11:26:21;96424.47;;;9.29;81.69
74708;BME280;63360;50.104;8.074;2022-12-29T11:31:49;96414.25;;;9.24;83.10
74708;BME280;63360;50.104;8.074;2022-12-29T11:34:21;96401.16;;;9.20;83.08
74708;BME280;63360;50.104;8.074;2022-12-29T11:36:52;96424.78;;;9.27;81.37
74708;BME280;63360;50.104;8.074;2022-12-29T11:39:55;96422.78;;;9.24;82.28
74708;BME280;63360;50.104;8.074;2022-12-29T11:42:34;96419.41;;;9.32;82.10
74708;BME280;63360;50.104;8.074;2022-12-29T11:45:17;96427.63;;;9.34;81.57
74708;BME280;63360;50.104;8.074;2022-12-29T11:47:47;96413.19;;;9.25;83.30
74708;BME280;63360;50.104;8.074;2022-12-29T11:50:19;96422.56;;;9.38;83.91
74708;BME280;63360;50.104;8.074;2022-12-29T11:52:47;96406.94;;;9.26;83.42
74708;BME280;63360;50.104;8.074;2022-12-29T11:55:21;96418.91;;;9.39;83.43
74708;BME280;63360;50.104;8.074;2022-12-29T11:57:50;96425.75;;;9.43;84.11
74708;BME280;63360;50.104;8.074;2022-12-29T12:00:20;96424.16;;;9.51;81.94
74708;BME280;63360;50.104;8.074;2022-12-29T12:02:54;96434.44;;;9.47;81.94
74708;BME280;63360;50.104;8.074;2022-12-29T12:11:01;96435.00;;;9.53;79.86
74708;BME280;63360;50.104;8.074;2022-12-29T12:13:38;96428.16;;;9.48;80.34
74708;BME280;63360;50.104;8.074;2022-12-29T12:16:10;96427.38;;;9.48;80.24
74708;BME280;63360;50.104;8.074;2022-12-29T12:18:47;96412.91;;;9.47;78.15
74708;BME280;63360;50.104;8.074;2022-12-29T12:21:33;96421.63;;;9.42;80.21
74708;BME280;63360;50.104;8.074;2022-12-29T12:26:59;96418.50;;;9.57;77.52
74708;BME280;63360;50.104;8.074;2022-12-29T12:29:36;96413.06;;;9.71;77.37
74708;BME280;63360;50.104;8.074;2022-12-29T12:32:20;96399.59;;;9.69;79.11
74708;BME280;63360;50.104;8.074;2022-12-29T12:34:49;96406.38;;;9.82;77.86
74708;BME280;63360;50.104;8.074;2022-12-29T12:40:49;96422.97;;;9.69;79.12
74708;BME280;63360;50.104;8.074;2022-12-29T12:52:21;96429.63;;;9.58;76.89
74708;BME280;63360;50.104;8.074;2022-12-29T12:55:02;96415.00;;;9.53;76.81
74708;BME280;63360;50.104;8.074;2022-12-29T12:58:09;96426.72;;;9.59;78.29
74708;BME280;63360;50.104;8.074;2022-12-29T13:01:18;96399.56;;;9.57;76.52
74708;BME280;63360;50.104;8.074;2022-12-29T13:04:09;96398.50;;;9.58;78.40
74708;BME280;63360;50.104;8.074;2022-12-29T13:10:08;96393.41;;;9.61;78.65
74708;BME280;63360;50.104;8.074;2022-12-29T13:15:42;96394.09;;;9.70;76.65
74708;BME280;63360;50.104;8.074;2022-12-29T13:18:15;96389.34;;;9.72;79.73
74708;BME280;63360;50.104;8.074;2022-12-29T13:21:06;96394.34;;;9.77;77.99
74708;BME280;63360;50.104;8.074;2022-12-29T13:23:48;96390.88;;;9.73;78.46
74708;BME280;63360;50.104;8.074;2022-12-29T13:26:30;96390.75;;;9.70;79.18
74708;BME280;63360;50.104;8.074;2022-12-29T13:31:45;96407.41;;;9.69;80.84
74708;BME280;63360;50.104;8.074;2022-12-29T13:37:17;96407.09;;;9.70;79.25
74708;BME280;63360;50.104;8.074;2022-12-29T13:39:52;96407.41;;;9.69;78.75
74708;BME280;63360;50.104;8.074;2022-12-29T13:42:21;96408.09;;;9.78;77.71
74708;BME280;63360;50.104;8.074;2022-12-29T13:44:57;96400.25;;;9.66;77.80
74708;BME280;63360;50.104;8.074;2022-12-29T13:47:51;96407.53;;;9.72;77.72
74708;BME280;63360;50.104;8.074;2022-12-29T13:50:22;96403.94;;;9.65;76.19
74708;BME280;63360;50.104;8.074;2022-12-29T13:53:08;96405.91;;;9.68;76.95
74708;BME280;63360;50.104;8.074;2022-12-29T13:55:46;96406.34;;;9.70;77.08
74708;BME280;63360;50.104;8.074;2022-12-29T13:58:31;96419.94;;;9.67;76.82
74708;BME280;63360;50.104;8.074;2022-12-29T14:01:10;96416.78;;;9.61;77.08
74708;BME280;63360;50.104;8.074;2022-12-29T14:03:52;96410.81;;;9.61;78.30
74708;BME280;63360;50.104;8.074;2022-12-29T14:09:00;96417.28;;;9.55;76.83
74708;BME280;63360;50.104;8.074;2022-12-29T14:11:39;96424.16;;;9.51;74.92
74708;BME280;63360;50.104;8.074;2022-12-29T14:14:20;96419.94;;;9.46;76.60
74708;BME280;63360;50.104;8.074;2022-12-29T14:16:48;96427.56;;;9.43;77.67
74708;BME280;63360;50.104;8.074;2022-12-29T14:19:21;96438.78;;;9.35;75.94
74708;BME280;63360;50.104;8.074;2022-12-29T14:22:10;96448.38;;;9.34;74.67
74708;BME280;63360;50.104;8.074;2022-12-29T14:24:41;96454.22;;;9.31;74.76
74708;BME280;63360;50.104;8.074;2022-12-29T14:34:56;96469.22;;;9.26;75.27
74708;BME280;63360;50.104;8.074;2022-12-29T14:37:31;96471.97;;;9.21;77.25
74708;BME280;63360;50.104;8.074;2022-12-29T14:40:21;96448.47;;;9.17;77.43
74708;BME280;63360;50.104;8.074;2022-12-29T14:42:51;96455.84;;;9.06;78.13
74708;BME280;63360;50.104;8.074;2022-12-29T14:47:47;96447.31;;;9.06;78.61
74708;BME280;63360;50.104;8.074;2022-12-29T14:50:39;96457.22;;;9.12;79.74
74708;BME280;63360;50.104;8.074;2022-12-29T14:56:14;96447.66;;;8.96;79.54
74708;BME280;63360;50.104;8.074;2022-12-29T14:58:48;96440.66;;;8.96;77.97
74708;BME280;63360;50.104;8.074;2022-12-29T15:01:43;96454.06;;;8.90;79.53
74708;BME280;63360;50.104;8.074;2022-12-29T15:04:18;96447.41;;;8.80;80.76
74708;BME280;63360;50.104;8.074;2022-12-29T15:06:48;96474.69;;;8.86;80.45
74708;BME280;63360;50.104;8.074;2022-12-29T15:09:33;96454.72;;;8.78;78.44
74708;BME280;63360;50.104;8.074;2022-12-29T15:14:56;96466.91;;;8.86;77.39
74708;BME280;63360;50.104;8.074;2022-12-29T15:17:29;96462.19;;;8.80;80.47
74708;BME280;63360;50.104;8.074;2022-12-29T15:19:59;96449.69;;;8.73;77.07